Time;durP1;ratioP1;P1;durP2;ratioP2;P2;SDS_P1;SDS_P2;PMS_P1;PMS_P2;Temp;Humidity;BMP_temperature;BMP_pressure;BME280_temperature;BME280_humidity;BME280_pressure;Samples;Min_cycle;Max_cycle;Signal;HPM_P1;HPM_P2
2020/12/26 00:00:39;;;;;;;10.17;8.00;;;2.70;27.90;;;;;;5062671;28;20192;-61
2020/12/26 00:03:05;;;;;;;12.00;8.80;;;2.70;27.40;;;;;;5049394;28;20181;-58
2020/12/26 00:05:31;;;;;;;15.80;8.52;;;2.70;26.80;;;;;;5050845;28;20351;-63
2020/12/26 00:07:56;;;;;;;12.57;8.00;;;2.70;19.40;;;;;;5060135;28;20263;-62
2020/12/26 00:10:22;;;;;;;10.60;6.67;;;2.70;18.70;;;;;;5049025;28;20200;-63
2020/12/26 00:12:48;;;;;;;9.70;7.00;;;2.70;21.00;;;;;;5052568;28;20311;-62
2020/12/26 00:15:14;;;;;;;8.23;6.68;;;2.80;16.10;;;;;;5048947;28;20533;-62
2020/12/26 00:17:39;;;;;;;9.07;6.30;;;2.80;16.10;;;;;;5050146;28;20180;-61
2020/12/26 00:20:05;;;;;;;7.00;6.00;;;2.80;12.30;;;;;;5048976;28;20185;-63
2020/12/26 00:22:34;;;;;;;6.65;5.60;;;2.70;16.30;;;;;;5049377;28;20176;-62
2020/12/26 00:24:59;;;;;;;7.75;6.10;;;2.70;15.00;;;;;;5048964;28;20211;-60
2020/12/26 00:27:25;;;;;;;8.70;6.27;;;2.60;22.00;;;;;;5049789;28;20181;-63
2020/12/26 00:29:51;;;;;;;10.23;6.30;;;2.70;21.60;;;;;;5059555;28;20183;-62
2020/12/26 00:32:16;;;;;;;6.90;5.70;;;2.70;17.80;;;;;;5055168;28;20648;-63
2020/12/26 00:34:42;;;;;;;13.07;6.33;;;2.70;23.90;;;;;;5047965;28;20187;-62
2020/12/26 00:37:07;;;;;;;7.47;6.10;;;2.60;18.40;;;;;;5048904;28;20785;-62
2020/12/26 00:39:33;;;;;;;9.23;6.30;;;2.70;21.00;;;;;;5048467;28;20197;-62
2020/12/26 00:41:59;;;;;;;9.53;6.40;;;2.70;14.30;;;;;;5069438;28;20191;-62
2020/12/26 00:44:24;;;;;;;8.93;6.47;;;2.60;14.20;;;;;;5060079;28;20239;-62
2020/12/26 00:46:50;;;;;;;7.33;5.40;;;2.70;8.60;;;;;;5049501;28;20255;-62
2020/12/26 00:49:15;;;;;;;10.27;6.20;;;2.70;16.40;;;;;;5048013;28;20186;-62
2020/12/26 00:51:41;;;;;;;7.03;5.50;;;2.60;9.00;;;;;;5038429;28;20201;-62
2020/12/26 00:54:06;;;;;;;6.70;5.37;;;2.60;13.40;;;;;;5048341;28;20270;-63
2020/12/26 00:56:36;;;;;;;7.80;5.50;;;2.60;19.10;;;;;;5048276;28;20196;-61
2020/12/26 00:59:01;;;;;;;8.75;5.88;;;2.50;20.00;;;;;;5062747;28;20188;-63
2020/12/26 01:01:27;;;;;;;9.60;6.10;;;2.60;9.00;;;;;;5069274;28;20167;-62
2020/12/26 01:03:53;;;;;;;10.13;6.00;;;2.60;6.70;;;;;;5054820;28;20314;-62
2020/12/26 01:06:18;;;;;;;6.90;6.17;;;2.60;6.10;;;;;;5054487;28;20535;-62
2020/12/26 01:08:44;;;;;;;8.23;6.70;;;2.50;8.50;;;;;;5048781;28;20208;-60
2020/12/26 01:11:10;;;;;;;8.60;5.43;;;2.60;7.80;;;;;;5048826;28;20197;-62
2020/12/26 01:13:35;;;;;;;10.90;5.80;;;2.60;1.00;;;;;;5053248;28;20274;-61
2020/12/26 01:16:01;;;;;;;8.50;6.50;;;2.60;1.50;;;;;;5058048;28;20428;-63
2020/12/26 01:18:29;;;;;;;7.47;5.90;;;2.50;5.40;;;;;;5048548;28;20544;-62
2020/12/26 01:20:56;;;;;;;8.90;6.03;;;2.50;2.20;;;;;;5048870;28;20195;-62
2020/12/26 01:23:21;;;;;;;9.95;6.28;;;2.50;1.00;;;;;;5052325;28;20189;-63
2020/12/26 01:25:48;;;;;;;6.90;6.17;;;2.40;1.00;;;;;;5056313;28;20217;-63
2020/12/26 01:28:14;;;;;;;8.07;5.28;;;2.30;1.00;;;;;;5048348;28;20442;-62
2020/12/26 01:30:40;;;;;;;8.53;6.17;;;2.30;1.00;;;;;;5047824;28;20248;-63
2020/12/26 01:33:05;;;;;;;6.20;5.20;;;2.30;1.00;;;;;;5040959;28;20435;-63
2020/12/26 01:35:31;;;;;;;6.83;5.40;;;2.20;2.50;;;;;;5047597;28;20181;-62
2020/12/26 01:37:57;;;;;;;7.00;5.10;;;2.20;7.00;;;;;;5053168;28;20199;-62
2020/12/26 01:40:22;;;;;;;10.03;5.47;;;2.20;1.00;;;;;;5060130;28;20665;-63
2020/12/26 01:42:48;;;;;;;7.40;4.80;;;2.10;3.90;;;;;;5047779;28;20185;-62
2020/12/26 01:45:14;;;;;;;5.83;5.20;;;2.10;2.90;;;;;;5047973;28;20231;-58
2020/12/26 01:47:39;;;;;;;9.70;5.67;;;2.00;3.40;;;;;;5047628;28;20212;-62
2020/12/26 01:50:05;;;;;;;8.00;6.30;;;2.00;5.10;;;;;;5048192;28;20272;-62
2020/12/26 01:52:31;;;;;;;6.43;5.22;;;1.90;6.10;;;;;;5050236;28;20180;-62
2020/12/26 01:54:58;;;;;;;15.67;5.90;;;1.90;13.00;;;;;;5055668;28;20562;-63
2020/12/26 01:57:33;;;;;;;8.80;5.32;;;1.80;14.10;;;;;;5051841;28;20613;-68
2020/12/26 01:59:58;;;;;;;6.90;5.05;;;1.70;15.40;;;;;;5051243;28;20265;-66
2020/12/26 02:02:24;;;;;;;7.60;5.20;;;1.70;15.00;;;;;;5052040;28;20699;-66
2020/12/26 02:04:49;;;;;;;6.97;5.00;;;1.70;15.90;;;;;;5051229;28;20242;-63
2020/12/26 02:07:15;;;;;;;9.20;5.70;;;1.70;18.90;;;;;;5050883;28;20191;-64
2020/12/26 02:09:41;;;;;;;9.47;5.70;;;1.70;20.90;;;;;;5060987;28;20284;-63
2020/12/26 02:12:06;;;;;;;9.40;5.30;;;1.80;16.40;;;;;;5051368;28;20551;-65
2020/12/26 02:14:32;;;;;;;8.33;4.87;;;1.90;5.70;;;;;;5051626;28;20535;-66
2020/12/26 02:16:58;;;;;;;7.00;5.03;;;1.90;6.30;;;;;;5050588;28;20205;-62
2020/12/26 02:19:25;;;;;;;6.30;4.70;;;1.90;1.00;;;;;;5048832;28;20184;-66
2020/12/26 02:21:51;;;;;;;8.80;4.80;;;1.90;1.00;;;;;;5051599;28;20274;-66
2020/12/26 02:24:17;;;;;;;5.57;4.70;;;1.90;1.00;;;;;;5050344;28;20554;-66
2020/12/26 02:26:43;;;;;;;7.70;5.00;;;2.00;1.00;;;;;;5051628;28;20264;-65
2020/12/26 02:29:09;;;;;;;8.10;4.80;;;2.00;1.00;;;;;;5050453;28;20294;-66
2020/12/26 02:31:35;;;;;;;5.90;4.27;;;2.00;1.00;;;;;;5051163;28;20295;-65
2020/12/26 02:34:04;;;;;;;6.97;4.70;;;2.00;1.00;;;;;;5050462;28;20256;-63
2020/12/26 02:36:30;;;;;;;5.32;4.78;;;2.00;1.00;;;;;;5051293;28;20181;-61
2020/12/26 02:38:56;;;;;;;6.80;4.50;;;2.10;1.00;;;;;;5050416;28;20189;-61
2020/12/26 02:41:21;;;;;;;6.87;3.80;;;2.00;1.00;;;;;;5051201;28;20266;-62
2020/12/26 02:43:47;;;;;;;5.97;3.90;;;2.00;1.00;;;;;;5049649;28;20274;-63
2020/12/26 02:46:13;;;;;;;4.07;3.67;;;2.10;1.00;;;;;;5051599;28;20180;-62
2020/12/26 02:48:39;;;;;;;4.93;3.70;;;2.10;1.00;;;;;;5045544;28;20272;-62
2020/12/26 02:51:04;;;;;;;4.50;3.40;;;2.10;1.00;;;;;;5048974;28;20435;-62
2020/12/26 02:53:30;;;;;;;5.20;3.57;;;2.10;1.00;;;;;;5050877;28;20194;-61
2020/12/26 02:55:55;;;;;;;4.40;3.53;;;2.10;1.00;;;;;;5051347;28;20279;-61
2020/12/26 02:58:21;;;;;;;4.30;3.43;;;2.10;1.00;;;;;;5048795;28;20214;-62
2020/12/26 03:00:49;;;;;;;4.17;3.23;;;2.10;1.00;;;;;;5051307;28;20583;-62
2020/12/26 03:03:15;;;;;;;3.67;3.15;;;2.20;1.00;;;;;;5050279;28;20216;-62
2020/12/26 03:05:40;;;;;;;3.63;2.90;;;2.20;1.00;;;;;;5043657;28;20207;-62
2020/12/26 03:08:06;;;;;;;6.50;3.13;;;2.20;1.00;;;;;;5050521;28;20189;-62
2020/12/26 03:10:31;;;;;;;8.00;3.83;;;2.20;1.00;;;;;;5050616;28;20192;-61
2020/12/26 03:12:57;;;;;;;4.20;3.80;;;2.20;1.00;;;;;;5050774;28;20271;-62
2020/12/26 03:15:23;;;;;;;4.13;3.20;;;2.20;1.00;;;;;;5050863;28;20192;-63
2020/12/26 03:17:49;;;;;;;5.13;3.00;;;2.20;1.00;;;;;;5049653;28;20184;-62
2020/12/26 03:20:14;;;;;;;7.90;3.17;;;2.20;1.00;;;;;;5051269;28;20616;-62
2020/12/26 03:22:40;;;;;;;4.77;3.07;;;2.10;1.00;;;;;;5050133;28;20189;-63
2020/12/26 03:25:06;;;;;;;5.57;3.57;;;2.10;1.00;;;;;;5050906;28;20716;-63
2020/12/26 03:27:31;;;;;;;7.03;3.67;;;2.10;1.00;;;;;;5050050;28;20194;-62
2020/12/26 03:29:57;;;;;;;5.40;3.43;;;2.10;1.00;;;;;;5046951;28;20189;-62
2020/12/26 03:32:22;;;;;;;3.90;3.20;;;2.10;1.00;;;;;;5050279;28;20271;-62
2020/12/26 03:34:49;;;;;;;6.10;3.60;;;2.20;1.00;;;;;;5052946;28;20192;-63
2020/12/26 03:37:14;;;;;;;3.85;3.30;;;2.20;1.00;;;;;;5050747;28;20708;-62
2020/12/26 03:39:40;;;;;;;3.80;3.30;;;2.20;1.00;;;;;;5049644;28;20191;-63
2020/12/26 03:42:08;;;;;;;5.43;3.57;;;2.20;1.00;;;;;;5050434;28;20588;-61
2020/12/26 03:44:34;;;;;;;4.80;3.50;;;2.20;1.00;;;;;;5049201;28;20235;-62
2020/12/26 03:47:00;;;;;;;5.25;3.90;;;2.20;1.00;;;;;;5043702;28;20224;-62
2020/12/26 03:49:29;;;;;;;4.47;3.95;;;2.20;1.00;;;;;;5049198;28;20189;-62
2020/12/26 03:51:55;;;;;;;5.60;4.15;;;2.20;1.00;;;;;;5060483;28;20179;-62
2020/12/26 03:54:20;;;;;;;5.83;4.10;;;2.20;1.00;;;;;;5049387;28;20181;-62
2020/12/26 03:56:46;;;;;;;4.63;3.43;;;2.20;1.00;;;;;;5049903;28;20262;-62
2020/12/26 03:59:12;;;;;;;10.07;4.50;;;2.10;1.00;;;;;;5049547;28;20242;-63
2020/12/26 04:01:37;;;;;;;5.73;3.87;;;2.10;1.00;;;;;;5050058;28;20207;-62
2020/12/26 04:04:03;;;;;;;6.47;4.20;;;2.20;1.00;;;;;;5048130;28;20184;-62
2020/12/26 04:06:29;;;;;;;4.60;4.18;;;2.20;1.00;;;;;;5050135;28;20263;-63
2020/12/26 04:08:55;;;;;;;8.33;4.27;;;2.20;1.00;;;;;;5061555;28;20168;-62
2020/12/26 04:11:22;;;;;;;5.50;4.47;;;2.20;1.00;;;;;;5050354;28;20910;-62
2020/12/26 04:13:47;;;;;;;5.22;4.72;;;2.20;1.00;;;;;;5042000;28;20196;-62
2020/12/26 04:16:13;;;;;;;6.47;3.67;;;2.20;1.00;;;;;;5049190;28;20200;-62
2020/12/26 04:18:39;;;;;;;4.07;3.70;;;2.20;1.00;;;;;;5049047;28;20271;-62
2020/12/26 04:21:05;;;;;;;7.07;3.93;;;2.20;1.00;;;;;;5049002;28;20435;-62
2020/12/26 04:23:32;;;;;;;4.00;3.60;;;2.20;1.00;;;;;;5048976;28;20272;-62
2020/12/26 04:25:58;;;;;;;6.20;4.20;;;2.30;1.00;;;;;;5049126;28;20205;-62
2020/12/26 04:28:23;;;;;;;6.33;4.30;;;2.20;1.00;;;;;;5048701;28;20184;-62
2020/12/26 04:30:49;;;;;;;6.33;4.33;;;2.20;1.00;;;;;;5049915;28;20174;-62
2020/12/26 04:33:15;;;;;;;4.40;4.00;;;2.20;1.00;;;;;;5048826;28;20172;-59
2020/12/26 04:35:40;;;;;;;4.00;3.60;;;2.30;1.00;;;;;;5049234;28;20692;-63
2020/12/26 04:38:06;;;;;;;4.20;3.67;;;2.30;1.00;;;;;;5039172;28;20213;-61
2020/12/26 04:40:32;;;;;;;4.50;3.43;;;2.40;1.00;;;;;;5047088;28;20191;-62
2020/12/26 04:42:59;;;;;;;6.47;3.80;;;2.30;1.00;;;;;;5031324;28;20211;-62
2020/12/26 04:45:25;;;;;;;6.25;3.85;;;2.20;1.00;;;;;;5049061;28;20231;-62
2020/12/26 04:47:57;;;;;;;4.70;4.00;;;2.10;1.00;;;;;;5047770;28;20184;-62
2020/12/26 04:50:33;;;;;;;3.40;2.97;;;2.10;1.00;;;;;;5038652;28;20290;-62
2020/12/26 04:53:03;;;;;;;3.30;3.00;;;2.10;1.00;;;;;;5053294;28;20267;-62
2020/12/26 04:55:34;;;;;;;3.88;2.95;;;2.10;1.00;;;;;;5049312;28;20279;-62
2020/12/26 04:58:06;;;;;;;3.28;2.70;;;2.10;1.00;;;;;;5048107;28;20192;-62
2020/12/26 05:00:36;;;;;;;3.17;2.70;;;2.10;1.00;;;;;;5049257;28;20198;-62
2020/12/26 05:03:10;;;;;;;3.33;3.03;;;2.10;1.00;;;;;;5048759;28;20188;-62
2020/12/26 05:05:37;;;;;;;3.17;2.72;;;2.10;1.00;;;;;;5047405;28;20202;-62
2020/12/26 05:08:05;;;;;;;4.50;2.63;;;2.10;1.00;;;;;;5052439;28;20177;-62
2020/12/26 05:10:32;;;;;;;4.45;2.58;;;2.10;1.00;;;;;;5048321;28;20203;-62
2020/12/26 05:12:58;;;;;;;4.32;2.40;;;2.10;1.00;;;;;;5046671;28;20223;-62
2020/12/26 05:15:24;;;;;;;2.97;2.55;;;2.10;1.00;;;;;;5039762;28;20208;-62
2020/12/26 05:17:50;;;;;;;4.30;2.70;;;2.10;1.00;;;;;;5049130;28;20184;-62
2020/12/26 05:20:15;;;;;;;3.73;2.40;;;2.20;1.00;;;;;;5048591;28;20188;-63
2020/12/26 05:22:41;;;;;;;3.23;2.93;;;2.20;1.00;;;;;;5047467;28;20184;-62
2020/12/26 05:25:10;;;;;;;3.43;2.60;;;2.20;1.00;;;;;;5048093;28;20201;-62
2020/12/26 05:27:36;;;;;;;2.50;2.30;;;2.30;1.00;;;;;;5049797;28;20182;-62
2020/12/26 05:30:06;;;;;;;3.13;2.75;;;2.20;1.00;;;;;;5036565;28;20280;-62
2020/12/26 05:32:32;;;;;;;3.35;2.60;;;2.20;1.00;;;;;;5053156;28;20190;-61
2020/12/26 05:35:06;;;;;;;3.20;2.50;;;2.10;1.00;;;;;;5051065;28;20266;-63
2020/12/26 05:37:33;;;;;;;2.90;2.60;;;2.10;1.00;;;;;;5034722;28;20184;-63
2020/12/26 05:40:00;;;;;;;3.38;2.67;;;2.10;1.00;;;;;;5045134;28;20909;-63
2020/12/26 05:42:27;;;;;;;4.07;2.60;;;2.00;1.00;;;;;;5051450;28;20670;-62
2020/12/26 05:45:04;;;;;;;2.97;2.65;;;2.00;1.00;;;;;;5052591;28;20233;-62
2020/12/26 05:47:30;;;;;;;2.90;2.60;;;2.00;1.00;;;;;;5051786;28;20279;-61
2020/12/26 05:49:56;;;;;;;3.33;2.53;;;1.90;1.00;;;;;;5061435;28;20190;-61
2020/12/26 05:52:25;;;;;;;2.70;2.50;;;1.90;1.00;;;;;;5055591;28;20193;-61
2020/12/26 05:54:51;;;;;;;2.78;2.28;;;1.90;1.00;;;;;;5040068;28;20431;-61
2020/12/26 05:57:18;;;;;;;2.92;2.70;;;1.90;1.00;;;;;;5051270;28;20188;-62
2020/12/26 05:59:47;;;;;;;6.88;2.90;;;1.90;1.00;;;;;;5042962;28;20235;-61
2020/12/26 06:02:25;;;;;;;3.60;2.85;;;1.90;1.00;;;;;;5050292;28;20181;-61
2020/12/26 06:05:03;;;;;;;3.65;3.30;;;1.90;1.00;;;;;;5051397;28;20593;-61
2020/12/26 06:07:36;;;;;;;4.60;3.22;;;2.00;1.00;;;;;;5051101;28;20193;-61
2020/12/26 06:10:06;;;;;;;3.83;3.05;;;2.00;1.00;;;;;;5051924;28;20189;-62
2020/12/26 06:12:32;;;;;;;3.72;3.17;;;2.00;1.00;;;;;;5050488;28;20193;-62
2020/12/26 06:14:59;;;;;;;13.27;3.60;;;2.00;1.00;;;;;;5052159;28;20534;-62
2020/12/26 06:17:28;;;;;;;3.53;3.08;;;2.00;1.00;;;;;;5045517;28;20280;-62
2020/12/26 06:20:07;;;;;;;4.05;3.03;;;1.90;1.00;;;;;;5051094;28;20188;-62
2020/12/26 06:22:59;;;;;;;3.40;2.97;;;1.90;1.00;;;;;;5051524;28;20191;-63
2020/12/26 06:25:25;;;;;;;3.50;3.20;;;1.80;1.00;;;;;;5048780;28;20212;-60
2020/12/26 06:27:56;;;;;;;4.07;3.33;;;1.80;1.00;;;;;;5051333;28;20208;-62
2020/12/26 06:30:22;;;;;;;4.28;3.70;;;1.70;1.00;;;;;;5052112;28;20180;-62
2020/12/26 06:32:50;;;;;;;7.40;3.90;;;1.70;1.00;;;;;;5051303;28;20187;-61
2020/12/26 06:35:19;;;;;;;5.30;4.20;;;1.70;1.00;;;;;;5051113;28;20510;-61
2020/12/26 06:37:46;;;;;;;4.60;3.58;;;1.70;1.00;;;;;;5051129;28;20749;-59
2020/12/26 06:40:29;;;;;;;4.53;4.10;;;1.70;1.00;;;;;;5051370;28;20191;-61
2020/12/26 06:42:55;;;;;;;5.50;4.07;;;1.70;1.00;;;;;;5049882;28;20548;-61
2020/12/26 06:45:35;;;;;;;6.38;4.20;;;1.80;1.00;;;;;;5051403;28;20228;-62
2020/12/26 06:48:02;;;;;;;4.18;3.75;;;1.80;1.00;;;;;;5049292;28;20192;-61
2020/12/26 06:50:30;;;;;;;8.18;4.43;;;1.80;1.00;;;;;;5051184;28;20177;-61
2020/12/26 06:52:56;;;;;;;5.70;3.92;;;1.80;1.00;;;;;;5057342;28;20268;-61
2020/12/26 06:55:41;;;;;;;5.27;4.30;;;1.70;1.00;;;;;;5056199;28;20287;-61
2020/12/26 06:58:31;;;;;;;6.90;5.18;;;1.70;1.00;;;;;;5049730;28;20184;-61
2020/12/26 07:00:56;;;;;;;5.45;4.30;;;1.60;1.00;;;;;;5032823;28;20211;-61
2020/12/26 07:03:29;;;;;;;7.37;4.83;;;1.40;1.00;;;;;;5047487;28;20190;-61
2020/12/26 07:05:55;;;;;;;5.03;4.10;;;1.40;1.00;;;;;;5051357;28;20199;-61
2020/12/26 07:08:29;;;;;;;5.88;4.55;;;1.30;1.00;;;;;;5049470;28;20214;-62
2020/12/26 07:10:57;;;;;;;5.63;4.32;;;1.20;1.00;;;;;;5051264;28;20240;-61
2020/12/26 07:13:49;;;;;;;6.53;4.85;;;1.10;1.00;;;;;;5058889;28;20184;-59
2020/12/26 07:16:34;;;;;;;8.15;4.80;;;1.00;1.00;;;;;;5050575;28;20195;-61
2020/12/26 07:19:30;;;;;;;5.82;5.03;;;0.90;1.00;;;;;;5043198;28;20234;-61
2020/12/26 07:21:59;;;;;;;6.03;4.70;;;0.90;1.00;;;;;;5048004;28;20175;-62
2020/12/26 07:24:33;;;;;;;6.38;4.72;;;0.80;1.00;;;;;;5049871;28;20550;-56
2020/12/26 07:27:25;;;;;;;6.43;4.70;;;0.70;1.00;;;;;;5040926;28;20186;-64
2020/12/26 07:30:05;;;;;;;7.97;5.00;;;0.60;1.00;;;;;;5046096;28;20178;-66
2020/12/26 07:32:40;;;;;;;8.65;4.95;;;0.60;1.00;;;;;;5049052;28;20512;-65
2020/12/26 07:35:23;;;;;;;7.72;5.30;;;0.50;2.00;;;;;;5050196;28;20210;-65
2020/12/26 07:38:19;;;;;;;8.95;5.30;;;0.50;6.10;;;;;;5049314;28;20207;-66
2020/12/26 07:40:46;;;;;;;10.38;5.60;;;0.40;8.20;;;;;;5038896;28;20297;-65
2020/12/26 07:43:16;;;;;;;9.57;5.55;;;0.30;9.20;;;;;;5049666;28;20194;-66
2020/12/26 07:45:44;;;;;;;8.27;4.90;;;0.30;10.00;;;;;;5049794;28;20320;-65
2020/12/26 07:48:10;;;;;;;9.70;5.00;;;0.40;13.50;;;;;;5048764;28;20185;-64
2020/12/26 07:50:38;;;;;;;7.22;5.15;;;0.50;17.60;;;;;;5049457;28;20194;-66
2020/12/26 07:53:06;;;;;;;7.63;5.07;;;0.50;12.80;;;;;;5041625;28;20590;-65
2020/12/26 07:55:35;;;;;;;8.90;5.07;;;0.50;14.60;;;;;;5049276;28;20185;-65
2020/12/26 07:58:16;;;;;;;6.38;4.95;;;0.50;14.50;;;;;;5051229;28;20186;-65
2020/12/26 08:00:43;;;;;;;7.57;5.05;;;0.60;18.40;;;;;;5049600;28;20191;-62
2020/12/26 08:03:11;;;;;;;8.00;6.05;;;0.70;21.70;;;;;;5048394;28;20217;-66
2020/12/26 08:05:38;;;;;;;7.43;6.10;;;0.80;20.90;;;;;;5049332;28;20725;-66
2020/12/26 08:08:20;;;;;;;6.45;5.50;;;0.90;17.10;;;;;;5052087;28;20179;-66
2020/12/26 08:10:46;;;;;;;9.35;5.70;;;1.10;17.20;;;;;;5049386;28;20653;-65
2020/12/26 08:13:14;;;;;;;8.13;5.70;;;1.40;1.00;;;;;;5048513;28;20179;-65
2020/12/26 08:15:40;;;;;;;9.73;5.30;;;1.70;10.40;;;;;;5049244;28;20422;-65
2020/12/26 08:18:05;;;;;;;5.50;4.73;;;2.10;1.00;;;;;;5048629;28;20250;-66
2020/12/26 08:20:33;;;;;;;6.47;4.90;;;2.60;1.00;;;;;;5049053;28;20435;-66
2020/12/26 08:22:58;;;;;;;7.53;5.65;;;3.00;1.00;;;;;;5048461;28;20228;-67
2020/12/26 08:25:26;;;;;;;8.20;5.50;;;3.50;1.00;;;;;;5038850;28;20233;-67
2020/12/26 08:27:52;;;;;;;7.35;5.40;;;3.90;1.00;;;;;;5047896;28;20186;-66
2020/12/26 08:30:18;;;;;;;6.07;5.35;;;4.20;99.90;;;;;;5049920;28;20578;-66
2020/12/26 08:32:49;;;;;;;7.83;5.80;;;4.70;91.90;;;;;;5048736;28;20261;-67
2020/12/26 08:35:17;;;;;;;6.28;5.68;;;4.80;99.90;;;;;;5048720;28;20619;-66
2020/12/26 08:37:46;;;;;;;5.63;4.88;;;5.20;99.90;;;;;;5047466;28;20190;-61
2020/12/26 08:40:16;;;;;;;7.32;5.32;;;5.50;99.90;;;;;;5048778;28;20187;-65
2020/12/26 08:42:42;;;;;;;5.82;5.22;;;5.60;99.90;;;;;;5048333;28;20181;-62
2020/12/26 08:45:23;;;;;;;6.32;5.72;;;5.30;1.00;;;;;;5049175;28;20226;-65
2020/12/26 08:47:49;;;;;;;5.93;5.32;;;4.90;1.00;;;;;;5046813;28;20193;-62
2020/12/26 08:50:15;;;;;;;5.90;5.30;;;4.60;1.00;;;;;;5048891;28;20208;-61
2020/12/26 08:52:43;;;;;;;7.00;5.10;;;4.70;99.90;;;;;;5052132;28;20181;-59
2020/12/26 08:55:09;;;;;;;6.25;5.65;;;4.70;99.90;;;;;;5057434;28;20526;-63
2020/12/26 08:57:35;;;;;;;9.63;6.10;;;4.90;1.00;;;;;;5046090;28;20260;-62
2020/12/26 09:00:24;;;;;;;6.63;5.70;;;5.20;1.00;;;;;;5038291;28;20416;-61
2020/12/26 09:02:51;;;;;;;6.78;5.20;;;5.20;1.00;;;;;;5035416;28;20268;-62
2020/12/26 09:05:31;;;;;;;5.68;5.18;;;5.50;1.00;;;;;;5048102;28;20208;-61
2020/12/26 09:08:07;;;;;;;5.77;5.27;;;6.00;99.90;;;;;;5033344;28;20188;-61
2020/12/26 09:10:38;;;;;;;4.60;4.20;;;6.70;8.90;;;;;;5031029;28;20448;-63
2020/12/26 09:13:15;;;;;;;4.70;4.20;;;6.50;1.00;;;;;;5047724;28;21096;-61
2020/12/26 09:16:10;;;;;;;5.37;4.73;;;7.00;1.00;;;;;;5046215;28;20469;-62
2020/12/26 09:18:38;;;;;;;5.60;5.10;;;7.50;1.00;;;;;;5043109;28;20435;-61
2020/12/26 09:21:05;;;;;;;6.27;5.57;;;7.70;1.00;;;;;;5049368;28;20419;-61
2020/12/26 09:23:41;;;;;;;5.37;4.83;;;7.50;1.00;;;;;;5041771;28;20561;-63
2020/12/26 09:26:21;;;;;;;6.00;4.87;;;7.60;1.00;;;;;;5044894;28;20471;-62
2020/12/26 09:28:52;;;;;;;5.07;4.50;;;7.90;1.00;;;;;;5042115;28;20424;-66
2020/12/26 09:31:23;;;;;;;4.87;4.47;;;7.80;99.90;;;;;;5043796;28;20424;-66
2020/12/26 09:33:51;;;;;;;4.87;4.47;;;7.50;99.90;;;;;;5040428;28;20446;-66
2020/12/26 09:36:19;;;;;;;5.60;5.10;;;8.00;99.90;;;;;;5043706;28;20408;-68
2020/12/26 09:38:45;;;;;;;5.17;4.67;;;8.70;99.90;;;;;;5039102;28;20557;-66
2020/12/26 09:41:18;;;;;;;5.53;4.73;;;9.00;99.90;;;;;;5034855;28;20483;-62
2020/12/26 09:43:45;;;;;;;4.97;4.57;;;9.50;99.90;;;;;;5033483;28;20225;-64
2020/12/26 09:46:11;;;;;;;4.20;3.80;;;10.10;99.90;;;;;;5032684;28;20491;-66
2020/12/26 09:48:37;;;;;;;4.27;3.90;;;10.50;99.90;;;;;;5041532;28;20440;-63
2020/12/26 09:51:03;;;;;;;4.80;4.37;;;10.50;99.90;;;;;;5048649;28;20470;-62
2020/12/26 09:53:29;;;;;;;3.93;3.63;;;9.90;79.60;;;;;;5050503;28;20182;-62
2020/12/26 09:55:55;;;;;;;4.90;3.90;;;9.40;99.90;;;;;;5051326;28;20441;-61
2020/12/26 09:58:20;;;;;;;3.93;3.63;;;8.50;99.90;;;;;;5039780;28;20227;-63
2020/12/26 10:00:46;;;;;;;3.93;3.63;;;7.60;99.90;;;;;;5044938;28;20217;-63
2020/12/26 10:03:12;;;;;;;4.57;3.90;;;7.30;99.90;;;;;;5047349;28;20275;-62
2020/12/26 10:05:37;;;;;;;5.43;3.77;;;6.70;1.00;;;;;;5043937;28;20209;-62
2020/12/26 10:08:03;;;;;;;5.20;4.70;;;6.30;1.00;;;;;;5052825;28;20217;-64
2020/12/26 10:10:28;;;;;;;4.43;3.90;;;6.00;1.00;;;;;;5042462;28;20613;-63
2020/12/26 10:12:54;;;;;;;4.60;4.10;;;5.90;1.00;;;;;;5048075;28;20186;-66
2020/12/26 10:15:20;;;;;;;4.20;3.70;;;5.80;1.00;;;;;;5047949;28;20265;-65
2020/12/26 10:17:45;;;;;;;4.30;3.43;;;5.60;1.00;;;;;;5050489;28;20192;-64
2020/12/26 10:20:11;;;;;;;5.43;3.93;;;5.40;1.00;;;;;;5049528;28;20287;-61
2020/12/26 10:22:37;;;;;;;5.53;3.70;;;5.00;92.10;;;;;;5047030;28;20198;-61
2020/12/26 10:25:03;;;;;;;3.60;3.07;;;4.80;99.90;;;;;;5051090;28;20209;-61
2020/12/26 10:27:28;;;;;;;4.50;4.10;;;4.60;99.90;;;;;;5049052;28;20220;-62
2020/12/26 10:29:54;;;;;;;4.63;3.80;;;4.40;1.00;;;;;;5047507;28;20436;-63
2020/12/26 10:32:19;;;;;;;4.83;3.80;;;4.30;1.00;;;;;;5051223;28;20266;-61
2020/12/26 10:34:45;;;;;;;4.37;3.73;;;4.20;1.00;;;;;;5050827;28;20194;-63
2020/12/26 10:37:15;;;;;;;5.50;4.13;;;4.20;23.90;;;;;;5050823;28;20220;-62
2020/12/26 10:39:41;;;;;;;4.35;3.95;;;4.10;1.00;;;;;;5050589;28;20205;-63
2020/12/26 10:42:06;;;;;;;4.30;3.90;;;4.00;99.90;;;;;;5046718;28;20279;-62
2020/12/26 10:44:32;;;;;;;3.93;3.53;;;4.00;1.00;;;;;;5047344;28;20236;-62
2020/12/26 10:46:58;;;;;;;4.87;3.77;;;3.90;1.00;;;;;;5055970;28;20186;-61
2020/12/26 10:49:23;;;;;;;4.50;3.80;;;3.90;99.90;;;;;;5051299;28;20209;-60
2020/12/26 10:51:49;;;;;;;6.47;4.17;;;3.80;1.00;;;;;;5052158;28;21038;-62
2020/12/26 10:54:15;;;;;;;5.33;4.80;;;3.90;99.90;;;;;;5047121;28;20233;-62
2020/12/26 10:56:45;;;;;;;4.80;4.40;;;3.90;99.90;;;;;;5049511;28;20183;-63
2020/12/26 10:59:11;;;;;;;5.00;4.50;;;4.00;99.90;;;;;;5045056;28;20170;-65
2020/12/26 11:01:37;;;;;;;3.93;3.60;;;4.00;99.90;;;;;;5045467;28;20178;-65
2020/12/26 11:04:02;;;;;;;4.33;3.93;;;4.20;1.00;;;;;;5050620;28;20201;-66
2020/12/26 11:06:28;;;;;;;4.73;4.23;;;4.30;39.30;;;;;;5049271;28;20534;-66
2020/12/26 11:08:53;;;;;;;6.43;4.17;;;4.30;99.90;;;;;;5052772;28;20174;-66
2020/12/26 11:11:19;;;;;;;6.23;4.30;;;4.40;99.90;;;;;;5050446;28;20257;-65
2020/12/26 11:13:45;;;;;;;4.23;3.83;;;4.60;99.90;;;;;;5050103;28;20185;-62
2020/12/26 11:16:15;;;;;;;5.67;4.20;;;4.70;99.90;;;;;;5049990;28;20659;-65
2020/12/26 11:18:42;;;;;;;5.07;3.83;;;4.70;1.00;;;;;;5049689;28;20264;-59
2020/12/26 11:21:08;;;;;;;4.85;3.97;;;4.70;1.00;;;;;;5049381;28;20754;-64
2020/12/26 11:23:33;;;;;;;4.88;4.47;;;4.90;1.00;;;;;;5049512;28;20177;-64
2020/12/26 11:25:59;;;;;;;5.13;4.60;;;5.20;93.20;;;;;;5049131;28;20296;-61
2020/12/26 11:28:25;;;;;;;6.13;3.90;;;5.40;1.00;;;;;;5049256;28;20190;-65
2020/12/26 11:30:50;;;;;;;5.60;4.00;;;5.60;99.90;;;;;;5050072;28;20591;-64
2020/12/26 11:33:16;;;;;;;6.37;4.17;;;5.90;1.00;;;;;;5049087;28;20177;-64
2020/12/26 11:35:42;;;;;;;3.70;3.40;;;6.10;99.90;;;;;;5049736;28;20194;-64
2020/12/26 11:38:08;;;;;;;5.47;4.75;;;6.10;99.90;;;;;;5048996;28;20186;-64
2020/12/26 11:40:34;;;;;;;7.40;4.10;;;5.90;99.90;;;;;;5048939;28;20194;-61
2020/12/26 11:42:59;;;;;;;6.13;4.90;;;5.70;1.00;;;;;;5049906;28;20190;-63
2020/12/26 11:45:25;;;;;;;6.03;4.00;;;5.50;1.00;;;;;;5047963;28;20240;-64
2020/12/26 11:47:51;;;;;;;5.47;4.07;;;5.40;32.60;;;;;;5050136;28;21009;-65
2020/12/26 11:50:16;;;;;;;4.80;4.40;;;5.10;1.00;;;;;;5044241;28;20222;-63
2020/12/26 11:52:42;;;;;;;5.73;3.70;;;5.10;1.00;;;;;;5049787;28;20182;-62
2020/12/26 11:55:07;;;;;;;5.33;4.20;;;5.10;91.60;;;;;;5034175;28;20653;-66
2020/12/26 11:57:33;;;;;;;5.87;4.10;;;5.10;1.00;;;;;;5048426;28;20185;-63
2020/12/26 11:59:58;;;;;;;3.90;3.57;;;5.20;60.90;;;;;;5048887;28;20185;-66
2020/12/26 12:02:24;;;;;;;5.00;4.10;;;5.30;90.90;;;;;;5047181;28;20173;-64
2020/12/26 12:04:50;;;;;;;5.37;4.07;;;5.20;1.00;;;;;;5047729;28;20205;-63
2020/12/26 12:07:15;;;;;;;5.43;4.20;;;5.00;1.00;;;;;;5046974;28;20181;-62
2020/12/26 12:09:41;;;;;;;6.57;4.20;;;5.00;1.00;;;;;;5048629;28;20241;-63
2020/12/26 12:12:07;;;;;;;4.60;3.83;;;5.00;99.90;;;;;;5049074;28;20173;-63
2020/12/26 12:14:33;;;;;;;5.68;4.00;;;4.90;1.00;;;;;;5049170;28;20682;-62
2020/12/26 12:16:59;;;;;;;4.87;4.37;;;4.80;99.90;;;;;;5047010;28;20215;-63
2020/12/26 12:19:24;;;;;;;4.30;3.70;;;4.70;1.00;;;;;;5047149;28;20440;-62
2020/12/26 12:21:50;;;;;;;4.20;3.47;;;4.60;1.00;;;;;;5046522;28;20178;-64
2020/12/26 12:24:16;;;;;;;4.27;3.87;;;4.50;99.90;;;;;;5046293;28;20289;-63
2020/12/26 12:26:43;;;;;;;5.00;4.00;;;4.40;1.00;;;;;;5044478;28;20193;-65
2020/12/26 12:29:08;;;;;;;6.93;4.20;;;4.50;1.00;;;;;;5047964;28;20170;-60
2020/12/26 12:31:39;;;;;;;4.17;3.77;;;4.40;99.90;;;;;;5047288;28;20629;-64
2020/12/26 12:34:06;;;;;;;5.00;4.50;;;4.40;1.00;;;;;;5046028;28;20204;-62
2020/12/26 12:36:32;;;;;;;5.15;4.00;;;4.40;1.00;;;;;;5042731;28;20878;-62
2020/12/26 12:38:58;;;;;;;4.53;4.13;;;4.40;1.00;;;;;;5037162;28;20187;-62
2020/12/26 12:41:23;;;;;;;4.30;3.60;;;4.40;1.00;;;;;;5032185;28;20183;-64
2020/12/26 12:43:49;;;;;;;5.27;4.10;;;4.40;99.90;;;;;;5035357;28;20960;-64
2020/12/26 12:46:15;;;;;;;5.00;4.00;;;4.50;72.00;;;;;;5036260;28;20289;-64
2020/12/26 12:48:40;;;;;;;6.97;4.20;;;4.50;99.90;;;;;;5037505;28;20175;-64
2020/12/26 12:51:10;;;;;;;4.13;3.73;;;4.50;1.00;;;;;;5038972;28;20236;-64
2020/12/26 12:53:36;;;;;;;4.20;3.80;;;4.40;99.90;;;;;;5031287;28;20193;-64
2020/12/26 12:56:01;;;;;;;4.43;4.00;;;4.40;1.00;;;;;;5047565;28;20194;-65
2020/12/26 12:58:27;;;;;;;4.43;4.03;;;4.40;1.00;;;;;;5047738;28;20185;-65
2020/12/26 13:00:53;;;;;;;6.30;4.27;;;4.40;1.00;;;;;;5047574;28;20659;-64
2020/12/26 13:03:18;;;;;;;5.33;4.77;;;4.30;99.90;;;;;;5048252;28;20440;-65
2020/12/26 13:05:44;;;;;;;4.33;3.93;;;4.30;1.00;;;;;;5047083;28;20208;-63